Hartford, Connecticut
Traffic Map
Current Weather Conditions
Hartford, Connecticut
Scattered Clouds
Scattered Clouds
24°
Feels Like: 24°
Wind Chill: 24° Ceiling: Unl
Heat Index: 24° Visibility: 10mi
Dew Point: Wind: 6mph
Humidity: 38% Direction: 170° (S)
Pressure: 29.99in Gusts: 0mph
Raw Report DataKHFD 301653Z 17005KT 10SM SCT075 24/09 A2999 RMK AO2 SLP156 T02440094
Traffic Incident Summary
Active as of:
Severity:
Category:
InformationThere was an issue retrieving the traffic information for this location. Please try a different location or try again shortly.
Advertisements
Track Severe Weather on mobile